• Join FlightAware (Why Join?)
  • Login
  • US Flag 
08:49PM EDT


 

Airport Tracker/Info


-or-


 

Live Flight TrackerFlight Track Log ✈ AMF6902 ✈ 23-Jul-2013 ✈ TNCA / AUA - TJSJ / SJU

Flight Track Log - Related Links

Times and Time Zones

All times are in EDT time to prevent confusion due to time zone crossing. See the AMF6902 flight status page for this flight to view local times or setup timezone preferences in your user account.

Time Position Orientation Groundspeed Altitude Reporting Facility
EDT Latitude Longitude Course Direction KTS MPH feet Rate Location/Type
06:18PM 14.7591 -68.5216 33° Northeast  Level Estimated
06:19PM 14.8141 -68.4847 33° Northeast  Level Estimated
06:20PM 14.8692 -68.4479 33° Northeast  Level Estimated
06:21PM 14.9242 -68.4109 33° Northeast  Level Estimated
06:22PM 14.9793 -68.3740 33° Northeast  Level Estimated
06:23PM 15.0343 -68.3371 33° Northeast  Level Estimated
06:24PM 15.0893 -68.3001 33° Northeast  Level Estimated
06:25PM 15.1444 -68.2631 33° Northeast  Level Estimated
06:26PM 15.1994 -68.2261 33° Northeast  Level Estimated
06:27PM 15.2544 -68.1891 33° Northeast  Level Estimated
06:28PM 15.3094 -68.1520 33° Northeast  Level Estimated
06:29PM 15.3644 -68.1150 33° Northeast  Level Estimated
06:30PM 15.4194 -68.0779 33° Northeast  Level Estimated
06:31PM 15.4744 -68.0408 33° Northeast  Level Estimated
06:32PM 15.5294 -68.0037 33° Northeast  Level Estimated
06:33PM 15.5844 -67.9665 33° Northeast  Level Estimated
06:34PM 15.6393 -67.9294 33° Northeast  Level Estimated
06:35PM 15.6943 -67.8922 33° Northeast  Level Estimated
06:36PM 15.7493 -67.8550 33° Northeast  Level Estimated
06:37PM 15.8042 -67.8178 33° Northeast  Level Estimated
06:38PM 15.8592 -67.7805 33° Northeast  Level Estimated
06:39PM 15.9141 -67.7433 33° Northeast  Level Estimated
06:40PM 15.9690 -67.7060 33° Northeast  Level Estimated
06:41PM 16.0240 -67.6687 33° Northeast  Level Estimated
06:42PM 16.0789 -67.6313 33° Northeast  Level Estimated
06:43PM 16.1338 -67.5940 33° Northeast  Level Estimated
06:44PM 16.1887 -67.5566 33° Northeast  Level Estimated
06:45PM 16.2436 -67.5192 33° Northeast  Level Estimated
06:46PM 16.2985 -67.4818 33° Northeast  Level Estimated
06:47PM 16.3534 -67.4444 33° Northeast  Level Estimated
06:48PM 16.4083 -67.4070 33° Northeast  Level Estimated
06:49PM 16.4631 -67.3695 33° Northeast  Level Estimated
06:49PM 16.2667 -67.3000 33° Northeast 260 299 21,000  Level San Juan Center
06:50PM 16.5180 -67.3320 33° Northeast  Level Estimated
06:50PM 16.3333 -67.2833 13° North 260 299 21,000  Level San Juan Center
06:51PM 16.5729 -67.2945 33° Northeast  Level Estimated
06:51PM 16.4000 -67.2500 26° Northeast 270 311 21,000  Level San Juan Center
06:52PM 16.6277 -67.2570 33° Northeast  Level Estimated
06:52PM 16.4667 -67.2167 26° Northeast 260 299 21,000  Level San Juan Center
06:53PM 16.6826 -67.2194 33° Northeast  Level Estimated
06:53PM 16.5333 -67.2000 13° North 260 299 21,000  Level San Juan Center
06:54PM 16.7374 -67.1818 33° Northeast  Level Estimated
06:54PM 16.6167 -67.1667 21° North 260 299 21,000  Level San Juan Center
06:55PM 16.6833 -67.1333 26° Northeast 260 299 21,000  Level San Juan Center
06:56PM 16.7500 -67.1167 13° North 250 288 21,000  Level San Juan Center
06:57PM 16.8167 -67.0833 26° Northeast 260 299 21,000  Level San Juan Center
06:58PM 16.8833 -67.0500 26° Northeast 260 299 21,000  Level San Juan Center
06:59PM 16.9500 -67.0333 13° North 260 299 21,000  Level San Juan Center
07:00PM 17.0167 -67.0000 26° Northeast 260 299 21,000  Level San Juan Center
07:01PM 17.0833 -66.9667 26° Northeast 250 288 21,000  Level San Juan Center
07:02PM 17.1500 -66.9500 13° North 260 299 21,000  Level San Juan Center
07:03PM 17.2167 -66.9167 26° Northeast 250 288 21,000 -600 Level San Juan Center
07:06PM 17.4333 -66.8333 20° North 280 322 18,600 -960 Descending San Juan Center
07:07PM 17.5167 -66.7833 30° Northeast 280 322 17,300 -1,260 Descending San Juan Center
07:09PM 17.6500 -66.7333 20° North 270 311 14,800 -1,200 Descending San Juan Center
07:11PM 17.8000 -66.6667 23° Northeast 280 322 12,600 -1,200 Descending San Juan Center
07:12PM 17.8667 -66.6500 13° North 270 311 11,300 -1,140 Descending San Juan Center
07:13PM 17.9333 -66.6167 25° Northeast 270 311 10,400 -1,020 Descending San Juan Center
07:14PM 18.0000 -66.5833 25° Northeast 270 311 9,300 -900 Descending San Juan Center
07:15PM 18.0833 -66.5500 21° North 260 299 8,600 -840 Descending San Juan Center
07:16PM 18.1500 -66.5333 13° North 260 299 7,700 -840 Descending San Juan Center
07:17PM 18.2167 -66.5000 25° Northeast 260 299 7,000 -360 Descending San Juan Center
07:18PM 18.2500 -66.4500 55° Northeast 230 265 7,000  Level San Juan Center
07:19PM 18.3167 -66.4333 13° North 230 265 7,100  Climbing San Juan Center
07:20PM 18.3833 -66.4333 360° North 230 265 7,100 -60 Level San Juan Center
07:21PM 18.4500 -66.4167 13° North 240 276 7,000 -60 Descending San Juan Center
07:22PM 18.5000 -66.4167 360° North 230 265 7,000  Level San Juan Center
07:23PM 18.5000 -66.3667 90° East 210 242 7,100 -240 Climbing San Juan Center
07:24PM 18.4833 -66.3167 109° East 200 230 6,600 -900 Descending San Juan Center
07:25PM 18.4500 -66.2667 125° Southeast 190 219 5,300 -1,500 Descending San Juan Center
07:26PM 18.4167 -66.2167 125° Southeast 190 219 3,600 -1,500 Descending San Juan Center
07:27PM 18.4333 -66.1500 75° East 180 207 2,300 -1,020 Descending San Juan Center
07:28PM 18.4333 -66.1167 90° East 150 173 1,600 -600 Descending San Juan Center
07:29PM 18.4333 -66.0667 90° East 110 127 1,200 -540 Descending San Juan Center
07:30PM 18.4333 -66.0333 90° East 110 127 600 -600 Descending San Juan Center